Time;durP1;ratioP1;P1;durP2;ratioP2;P2;SDS_P1;SDS_P2;PMS_P1;PMS_P2;Temp;Humidity;BMP_temperature;BMP_pressure;BME280_temperature;BME280_humidity;BME280_pressure;Samples;Min_cycle;Max_cycle;Signal;HPM_P1;HPM_P2
2022/08/04 00:01:02;;;;;;;5.95;2.92;;;;;;;;;;5014987;28;20025;-87
2022/08/04 00:03:28;;;;;;;11.18;3.20;;;;;;;;;;5015058;28;20025;-87
2022/08/04 00:06:06;;;;;;;17.80;3.25;;;;;;;;;;5013514;28;20043;-86
2022/08/04 00:08:46;;;;;;;8.45;3.10;;;;;;;;;;5018942;28;20022;-82
2022/08/04 00:11:15;;;;;;;3.95;3.10;;;;;;;;;;5014295;28;20038;-88
2022/08/04 00:13:42;;;;;;;6.32;2.85;;;;;;;;;;5014517;28;20037;-86
2022/08/04 00:16:09;;;;;;;5.95;3.10;;;;;;;;;;5015036;28;20049;-87
2022/08/04 00:18:40;;;;;;;3.70;2.90;;;;;;;;;;5013512;28;20021;-83
2022/08/04 00:21:06;;;;;;;5.32;3.15;;;;;;;;;;5024058;28;20032;-88
2022/08/04 00:23:34;;;;;;;9.07;3.60;;;;;;;;;;5016347;28;20423;-88
2022/08/04 00:26:00;;;;;;;7.43;2.85;;;;;;;;;;5014278;28;20058;-87
2022/08/04 00:28:27;;;;;;;5.43;3.10;;;;;;;;;;5011527;28;20032;-87
2022/08/04 00:30:54;;;;;;;6.70;3.25;;;;;;;;;;5014347;28;20029;-85
2022/08/04 00:33:20;;;;;;;5.68;3.10;;;;;;;;;;5014090;28;20074;-86
2022/08/04 00:35:50;;;;;;;4.95;3.05;;;;;;;;;;5013289;28;20047;-87
2022/08/04 00:38:17;;;;;;;6.03;3.08;;;;;;;;;;5013351;28;20435;-88
2022/08/04 00:40:46;;;;;;;4.60;2.97;;;;;;;;;;5022711;28;20108;-85
2022/08/04 00:43:32;;;;;;;6.07;3.00;;;;;;;;;;5014921;28;20389;-82
2022/08/04 00:45:58;;;;;;;4.32;2.72;;;;;;;;;;5015984;28;20029;-85
2022/08/04 00:48:30;;;;;;;7.53;3.53;;;;;;;;;;5015734;28;20183;-88
2022/08/04 00:50:56;;;;;;;6.32;2.95;;;;;;;;;;5016868;28;20040;-84
2022/08/04 00:53:40;;;;;;;4.63;2.75;;;;;;;;;;5012307;28;20041;-88
2022/08/04 00:56:15;;;;;;;6.13;3.10;;;;;;;;;;5009470;28;20033;-86
2022/08/04 00:59:00;;;;;;;7.75;3.03;;;;;;;;;;5023329;28;20041;-86
2022/08/04 01:01:35;;;;;;;4.35;2.92;;;;;;;;;;5021426;28;20040;-87
2022/08/04 01:04:03;;;;;;;4.38;2.83;;;;;;;;;;5020192;28;20045;-87
2022/08/04 01:06:35;;;;;;;8.10;3.10;;;;;;;;;;5015381;28;20029;-87
2022/08/04 01:09:21;;;;;;;4.63;2.80;;;;;;;;;;5016077;28;20026;-88
2022/08/04 01:12:06;;;;;;;5.55;3.33;;;;;;;;;;5016140;28;20383;-81
2022/08/04 01:14:32;;;;;;;7.47;3.20;;;;;;;;;;5018331;28;20112;-72
2022/08/04 01:17:05;;;;;;;8.93;3.47;;;;;;;;;;5016214;28;20026;-86
2022/08/04 01:19:31;;;;;;;8.00;3.00;;;;;;;;;;5014861;28;20045;-86
2022/08/04 01:22:16;;;;;;;6.93;3.10;;;;;;;;;;5017073;28;20027;-85
2022/08/04 01:24:57;;;;;;;5.40;3.10;;;;;;;;;;5016801;28;20029;-82
2022/08/04 01:27:23;;;;;;;4.78;3.38;;;;;;;;;;5028039;28;20462;-84
2022/08/04 01:29:50;;;;;;;5.00;3.25;;;;;;;;;;5014013;28;20399;-82
2022/08/04 01:32:28;;;;;;;7.18;3.08;;;;;;;;;;5014952;28;20549;-84
2022/08/04 01:34:54;;;;;;;4.28;3.20;;;;;;;;;;5023880;28;20061;-71
2022/08/04 01:37:31;;;;;;;4.97;2.78;;;;;;;;;;5033348;28;20463;-71
2022/08/04 01:40:03;;;;;;;5.63;3.00;;;;;;;;;;5034087;28;20083;-86
2022/08/04 01:42:32;;;;;;;5.47;3.28;;;;;;;;;;5032845;28;20028;-71
2022/08/04 01:44:58;;;;;;;4.63;3.13;;;;;;;;;;5035019;28;20552;-73
2022/08/04 01:47:28;;;;;;;7.18;3.65;;;;;;;;;;5038101;28;20033;-71
2022/08/04 01:49:54;;;;;;;8.23;3.50;;;;;;;;;;5036547;28;20021;-71
2022/08/04 01:52:23;;;;;;;6.88;3.53;;;;;;;;;;5036903;28;20030;-71
2022/08/04 01:54:49;;;;;;;6.22;3.38;;;;;;;;;;5038371;28;20045;-85
2022/08/04 01:57:17;;;;;;;7.32;3.53;;;;;;;;;;5042289;28;20482;-72
2022/08/04 01:59:45;;;;;;;4.43;3.10;;;;;;;;;;5041483;28;20100;-85
2022/08/04 02:02:11;;;;;;;6.00;3.90;;;;;;;;;;5040572;28;20533;-82
2022/08/04 02:04:37;;;;;;;7.97;3.28;;;;;;;;;;5045831;28;20069;-84
2022/08/04 02:07:15;;;;;;;9.73;3.70;;;;;;;;;;5048257;28;20041;-71
2022/08/04 02:10:07;;;;;;;5.53;3.35;;;;;;;;;;5046282;28;20030;-81
2022/08/04 02:12:43;;;;;;;5.15;3.22;;;;;;;;;;5024513;28;20049;-84
2022/08/04 02:15:27;;;;;;;6.82;3.42;;;;;;;;;;5050550;28;20025;-84
2022/08/04 02:17:53;;;;;;;;;;;;;;;;;;5053323;28;20029;-81
2022/08/04 02:20:22;;;;;;;5.35;3.25;;;;;;;;;;5044305;28;19991;-77
2022/08/04 02:22:58;;;;;;;5.63;3.30;;;;;;;;;;5050472;28;20040;-78
2022/08/04 02:25:25;;;;;;;5.53;3.10;;;;;;;;;;5061176;28;20025;-83
2022/08/04 02:28:00;;;;;;;8.90;3.83;;;;;;;;;;5070355;28;20025;-80
2022/08/04 02:30:59;;;;;;;5.97;3.45;;;;;;;;;;5038029;28;20045;-75
2022/08/04 02:33:31;;;;;;;3.63;3.22;;;;;;;;;;4955463;29;20043;-73
2022/08/04 02:35:58;;;;;;;8.02;3.72;;;;;;;;;;4956089;29;20489;-71
2022/08/04 02:38:38;;;;;;;3.88;3.20;;;;;;;;;;4956691;29;20028;-78
2022/08/04 02:41:05;;;;;;;6.18;3.70;;;;;;;;;;4959483;29;20050;-74
2022/08/04 02:43:32;;;;;;;5.35;3.20;;;;;;;;;;4957382;29;20024;-78
2022/08/04 02:45:58;;;;;;;5.40;3.58;;;;;;;;;;4959703;28;20104;-75
2022/08/04 02:48:26;;;;;;;8.90;3.58;;;;;;;;;;4958917;28;20444;-77
2022/08/04 02:50:55;;;;;;;4.63;3.38;;;;;;;;;;4961382;29;20028;-74
2022/08/04 02:53:22;;;;;;;6.05;3.30;;;;;;;;;;4961210;29;20075;-78
2022/08/04 02:55:48;;;;;;;6.13;3.70;;;;;;;;;;4962532;29;20063;-76
2022/08/04 02:58:19;;;;;;;5.88;2.95;;;;;;;;;;4961864;29;20048;-71
2022/08/04 03:00:45;;;;;;;9.13;3.38;;;;;;;;;;4947491;29;20060;-73
2022/08/04 03:03:21;;;;;;;5.10;3.58;;;;;;;;;;4960430;29;20051;-70
2022/08/04 03:06:13;;;;;;;8.20;4.10;;;;;;;;;;4958156;29;20028;-70
2022/08/04 03:08:45;;;;;;;5.18;3.30;;;;;;;;;;4969260;28;20042;-71
2022/08/04 03:11:30;;;;;;;7.22;3.58;;;;;;;;;;5033890;28;20030;-71
2022/08/04 03:14:02;;;;;;;11.27;3.70;;;;;;;;;;5041216;28;20053;-71
2022/08/04 03:16:37;;;;;;;7.05;3.47;;;;;;;;;;5040068;28;20002;-71
2022/08/04 03:19:23;;;;;;;6.13;3.25;;;;;;;;;;5041004;28;20030;-72
2022/08/04 03:21:57;;;;;;;6.80;3.53;;;;;;;;;;5039427;28;20493;-71
2022/08/04 03:24:42;;;;;;;6.55;3.83;;;;;;;;;;5041858;28;20071;-70
2022/08/04 03:27:14;;;;;;;5.35;3.72;;;;;;;;;;5034378;28;20080;-70
2022/08/04 03:29:59;;;;;;;7.97;3.63;;;;;;;;;;5024441;28;20097;-70
2022/08/04 03:32:30;;;;;;;7.63;3.53;;;;;;;;;;5022888;28;20083;-71
2022/08/04 03:35:15;;;;;;;8.40;3.88;;;;;;;;;;5030201;28;20054;-70
2022/08/04 03:38:00;;;;;;;7.00;3.75;;;;;;;;;;5055993;28;20040;-73
2022/08/04 03:40:32;;;;;;;13.57;4.20;;;;;;;;;;5041244;28;20024;-72
2022/08/04 03:43:07;;;;;;;12.23;4.32;;;;;;;;;;5042633;28;20036;-70
2022/08/04 03:45:57;;;;;;;10.02;4.50;;;;;;;;;;5060075;28;20034;-71
2022/08/04 03:48:39;;;;;;;12.30;4.50;;;;;;;;;;5054061;28;20029;-70
2022/08/04 03:54:18;;;;;;;8.10;3.75;;;;;;;;;;5053579;28;20040;-71
2022/08/04 03:57:03;;;;;;;7.93;4.07;;;;;;;;;;5043008;28;20020;-71
2022/08/04 03:59:47;;;;;;;10.38;4.85;;;;;;;;;;5044153;28;20030;-70
2022/08/04 04:02:32;;;;;;;10.13;3.83;;;;;;;;;;5041022;28;20068;-70
2022/08/04 04:05:04;;;;;;;7.90;4.10;;;;;;;;;;5022883;28;20391;-71
2022/08/04 04:07:30;;;;;;;11.95;3.67;;;;;;;;;;5043384;28;20009;-71
2022/08/04 04:09:56;;;;;;;6.70;3.70;;;;;;;;;;5043349;28;20090;-71
2022/08/04 04:12:34;;;;;;;8.20;3.30;;;;;;;;;;5047956;28;20127;-78
2022/08/04 04:15:00;;;;;;;7.47;3.58;;;;;;;;;;5041336;28;20037;-71
2022/08/04 04:17:52;;;;;;;9.07;3.10;;;;;;;;;;5045957;28;20029;-71
2022/08/04 04:20:36;;;;;;;4.95;3.25;;;;;;;;;;5045796;28;20049;-71
2022/08/04 04:23:15;;;;;;;6.95;3.38;;;;;;;;;;5045041;28;20098;-70
2022/08/04 04:25:59;;;;;;;8.35;3.30;;;;;;;;;;5024027;28;20018;-70
2022/08/04 04:28:34;;;;;;;6.28;3.38;;;;;;;;;;5048260;28;20463;-70
2022/08/04 04:31:19;;;;;;;6.43;3.40;;;;;;;;;;5042250;28;20121;-70
2022/08/04 04:33:48;;;;;;;8.48;3.40;;;;;;;;;;5048949;28;20119;-74
2022/08/04 04:36:22;;;;;;;6.13;3.38;;;;;;;;;;5049054;28;20044;-70
2022/08/04 04:39:13;;;;;;;11.27;3.50;;;;;;;;;;5043282;28;20021;-70
2022/08/04 04:41:42;;;;;;;5.70;3.63;;;;;;;;;;5034077;28;20026;-77
2022/08/04 04:44:08;;;;;;;32.50;6.45;;;;;;;;;;5028093;28;20028;-70
2022/08/04 04:46:40;;;;;;;17.55;4.40;;;;;;;;;;5031949;28;20036;-72
2022/08/04 04:49:09;;;;;;;8.70;4.00;;;;;;;;;;5029506;28;20038;-74
2022/08/04 04:51:35;;;;;;;5.75;3.60;;;;;;;;;;5037905;28;20263;-70
2022/08/04 04:54:08;;;;;;;9.40;4.22;;;;;;;;;;5036625;28;20052;-71
2022/08/04 04:56:37;;;;;;;8.50;3.90;;;;;;;;;;5023029;28;20022;-71
2022/08/04 04:59:06;;;;;;;43.88;6.65;;;;;;;;;;5031630;28;20054;-77
2022/08/04 05:01:37;;;;;;;9.52;4.00;;;;;;;;;;5035309;28;20021;-84
2022/08/04 05:04:22;;;;;;;10.95;4.30;;;;;;;;;;5031310;28;20037;-83
2022/08/04 05:07:01;;;;;;;14.88;4.28;;;;;;;;;;5034676;28;20032;-78
2022/08/04 05:09:30;;;;;;;14.82;4.00;;;;;;;;;;5043667;28;20036;-68
2022/08/04 05:12:08;;;;;;;12.48;4.15;;;;;;;;;;5036893;28;20029;-87
2022/08/04 05:14:35;;;;;;;10.60;4.30;;;;;;;;;;5032489;28;20091;-88
2022/08/04 05:17:24;;;;;;;14.43;4.55;;;;;;;;;;5031383;28;20036;-81
2022/08/04 05:20:09;;;;;;;6.05;4.00;;;;;;;;;;5019645;28;20037;-88
2022/08/04 05:22:52;;;;;;;14.35;4.70;;;;;;;;;;5027012;28;20022;-81
2022/08/04 05:25:23;;;;;;;11.90;5.03;;;;;;;;;;5023745;28;20036;-81
2022/08/04 05:27:51;;;;;;;13.23;4.22;;;;;;;;;;5030555;28;20025;-69
2022/08/04 05:30:17;;;;;;;9.65;3.88;;;;;;;;;;5032714;28;20027;-67
2022/08/04 05:32:47;;;;;;;8.77;3.67;;;;;;;;;;5033070;28;20017;-68
2022/08/04 05:35:21;;;;;;;10.15;3.65;;;;;;;;;;5032066;28;20080;-69
2022/08/04 05:37:49;;;;;;;8.02;3.83;;;;;;;;;;5032843;28;20022;-70
2022/08/04 05:40:17;;;;;;;7.13;3.38;;;;;;;;;;5032482;28;20025;-77
2022/08/04 05:42:43;;;;;;;7.75;3.83;;;;;;;;;;5032802;28;20017;-79
2022/08/04 05:45:10;;;;;;;7.65;3.78;;;;;;;;;;5032879;28;20479;-68
2022/08/04 05:47:36;;;;;;;9.77;3.85;;;;;;;;;;5032596;28;20387;-80
2022/08/04 05:50:03;;;;;;;13.60;4.18;;;;;;;;;;5032585;28;20498;-75
2022/08/04 05:52:30;;;;;;;6.40;3.58;;;;;;;;;;5032424;28;20029;-68
2022/08/04 05:54:58;;;;;;;7.30;3.90;;;;;;;;;;5013825;28;20056;-68
2022/08/04 05:57:24;;;;;;;11.98;4.00;;;;;;;;;;5029452;28;20112;-78
2022/08/04 05:59:50;;;;;;;8.90;4.20;;;;;;;;;;5032380;28;20034;-79
2022/08/04 06:02:17;;;;;;;11.63;4.57;;;;;;;;;;5032533;28;20057;-73
2022/08/04 06:04:46;;;;;;;8.70;4.38;;;;;;;;;;5032252;28;20030;-71
2022/08/04 06:07:13;;;;;;;4.88;3.85;;;;;;;;;;5032610;28;20109;-68
2022/08/04 06:09:39;;;;;;;9.60;4.10;;;;;;;;;;5032208;28;20101;-78
2022/08/04 06:12:19;;;;;;;7.38;4.20;;;;;;;;;;5032394;28;20033;-78
2022/08/04 06:14:46;;;;;;;9.35;4.47;;;;;;;;;;5032156;28;20032;-77
2022/08/04 06:17:19;;;;;;;5.72;3.72;;;;;;;;;;5032845;28;20076;-74
2022/08/04 06:19:47;;;;;;;7.43;3.80;;;;;;;;;;5032502;28;20022;-78
2022/08/04 06:22:13;;;;;;;6.57;4.07;;;;;;;;;;5032210;28;20475;-74
2022/08/04 06:24:41;;;;;;;6.20;4.13;;;;;;;;;;5032535;28;20410;-72
2022/08/04 06:27:07;;;;;;;12.70;4.32;;;;;;;;;;5035749;28;20033;-77
2022/08/04 06:29:37;;;;;;;19.13;10.70;;;;;;;;;;5036351;28;20509;-75
2022/08/04 06:32:26;;;;;;;12.38;5.90;;;;;;;;;;5036411;28;20454;-80
2022/08/04 06:34:56;;;;;;;9.15;5.53;;;;;;;;;;5035382;28;20056;-70
2022/08/04 06:37:23;;;;;;;12.50;6.80;;;;;;;;;;5035042;28;20079;-81
2022/08/04 06:39:51;;;;;;;10.80;7.18;;;;;;;;;;5036228;28;20033;-78
2022/08/04 06:42:18;;;;;;;7.25;5.47;;;;;;;;;;5035757;28;20022;-69
2022/08/04 06:44:46;;;;;;;16.00;5.70;;;;;;;;;;5035881;28;20021;-74
2022/08/04 06:47:12;;;;;;;13.25;5.15;;;;;;;;;;5035410;28;20029;-70
2022/08/04 06:49:39;;;;;;;9.65;5.25;;;;;;;;;;5035997;28;20028;-78
2022/08/04 06:52:05;;;;;;;8.10;4.95;;;;;;;;;;5035646;28;20029;-77
2022/08/04 06:54:31;;;;;;;14.25;5.45;;;;;;;;;;5014775;28;20506;-69
2022/08/04 06:56:58;;;;;;;9.50;5.10;;;;;;;;;;5028314;28;20030;-77
2022/08/04 06:59:25;;;;;;;9.10;5.25;;;;;;;;;;5033357;28;20030;-72
2022/08/04 07:01:52;;;;;;;10.93;4.85;;;;;;;;;;5033815;28;20048;-79
2022/08/04 07:04:18;;;;;;;10.23;4.72;;;;;;;;;;5031951;28;20029;-68
2022/08/04 07:06:45;;;;;;;9.35;5.22;;;;;;;;;;5034542;28;20030;-67
2022/08/04 07:09:11;;;;;;;19.25;5.90;;;;;;;;;;5034920;28;20104;-80
2022/08/04 07:11:37;;;;;;;470.52;24.00;;;;;;;;;;5033506;28;20091;-67
2022/08/04 07:14:04;;;;;;;57.88;9.25;;;;;;;;;;5035387;28;20037;-78
2022/08/04 07:16:30;;;;;;;11.90;4.93;;;;;;;;;;5033010;28;20021;-68
2022/08/04 07:18:56;;;;;;;144.65;13.82;;;;;;;;;;5031379;28;20041;-67
2022/08/04 07:21:23;;;;;;;28.05;6.93;;;;;;;;;;5031211;28;20022;-77
2022/08/04 07:23:49;;;;;;;8.70;5.13;;;;;;;;;;5033353;28;20030;-68
2022/08/04 07:26:17;;;;;;;11.52;4.68;;;;;;;;;;5033667;28;20021;-70
2022/08/04 07:28:43;;;;;;;10.43;5.03;;;;;;;;;;5034069;28;20037;-69
2022/08/04 07:31:11;;;;;;;16.77;5.68;;;;;;;;;;5029137;28;20052;-73
2022/08/04 07:33:37;;;;;;;195.70;10.82;;;;;;;;;;5032114;28;20033;-71
2022/08/04 07:36:04;;;;;;;41.67;6.75;;;;;;;;;;5034149;28;20041;-84
2022/08/04 07:38:30;;;;;;;3.83;3.15;;;;;;;;;;5035087;28;20079;-80
2022/08/04 07:40:56;;;;;;;8.02;3.70;;;;;;;;;;5034931;28;20485;-77
2022/08/04 07:43:22;;;;;;;10.63;4.35;;;;;;;;;;5032755;28;20041;-76
2022/08/04 07:45:48;;;;;;;6.13;3.70;;;;;;;;;;5034706;28;20021;-81
2022/08/04 07:48:17;;;;;;;5.10;3.75;;;;;;;;;;5034780;28;20029;-75
2022/08/04 07:50:44;;;;;;;7.53;3.80;;;;;;;;;;5034600;28;20021;-74
2022/08/04 07:53:12;;;;;;;8.18;3.15;;;;;;;;;;5034733;28;20033;-75
2022/08/04 07:55:38;;;;;;;5.88;2.90;;;;;;;;;;5034291;28;20037;-81
2022/08/04 07:58:04;;;;;;;10.45;3.05;;;;;;;;;;5034899;28;20028;-77
2022/08/04 08:00:30;;;;;;;7.85;2.65;;;;;;;;;;5035049;28;20021;-75
2022/08/04 08:02:57;;;;;;;5.15;2.72;;;;;;;;;;5013263;28;20029;-81
2022/08/04 08:05:23;;;;;;;4.95;2.88;;;;;;;;;;5024149;28;20029;-82
2022/08/04 08:07:49;;;;;;;7.47;3.15;;;;;;;;;;5033624;28;20037;-79
2022/08/04 08:10:16;;;;;;;4.03;2.80;;;;;;;;;;5014609;28;20124;-80
2022/08/04 08:12:42;;;;;;;9.90;3.28;;;;;;;;;;5032153;28;20100;-79
2022/08/04 08:15:09;;;;;;;5.63;3.25;;;;;;;;;;5033150;28;20056;-79
2022/08/04 08:17:36;;;;;;;4.20;2.80;;;;;;;;;;5013733;28;20025;-77
2022/08/04 08:20:02;;;;;;;6.22;2.95;;;;;;;;;;5021301;28;20025;-83
2022/08/04 08:22:30;;;;;;;6.72;3.40;;;;;;;;;;5027816;28;20088;-80
2022/08/04 08:24:56;;;;;;;13.55;4.05;;;;;;;;;;5031561;28;20041;-86
2022/08/04 08:27:22;;;;;;;4.65;2.80;;;;;;;;;;5035965;28;20033;-85
2022/08/04 08:29:48;;;;;;;7.43;2.70;;;;;;;;;;5034532;28;20032;-75
2022/08/04 08:32:15;;;;;;;6.00;3.30;;;;;;;;;;5032314;28;20060;-78
2022/08/04 08:34:42;;;;;;;5.28;2.50;;;;;;;;;;5035629;28;20148;-74
2022/08/04 08:37:17;;;;;;;6.03;2.80;;;;;;;;;;5027158;28;20022;-82
2022/08/04 08:39:53;;;;;;;3.72;2.78;;;;;;;;;;5022343;28;20018;-77
2022/08/04 08:42:32;;;;;;;7.57;3.13;;;;;;;;;;5031568;28;20483;-85
2022/08/04 08:45:17;;;;;;;5.13;3.10;;;;;;;;;;5027623;28;20045;-84
2022/08/04 08:47:56;;;;;;;5.30;3.15;;;;;;;;;;5024419;28;20022;-84
2022/08/04 08:50:45;;;;;;;6.30;3.38;;;;;;;;;;5032795;28;20136;-78
2022/08/04 08:53:30;;;;;;;12.40;3.75;;;;;;;;;;4971407;28;20118;-82
2022/08/04 08:56:19;;;;;;;8.27;3.40;;;;;;;;;;4972713;28;20039;-82
2022/08/04 08:59:15;;;;;;;6.55;3.08;;;;;;;;;;4972486;28;20035;-80
2022/08/04 09:01:47;;;;;;;3.67;2.78;;;;;;;;;;4967703;28;20027;-77
2022/08/04 09:04:16;;;;;;;2.97;2.50;;;;;;;;;;4966869;28;20047;-83
2022/08/04 09:07:02;;;;;;;9.98;2.97;;;;;;;;;;4969913;28;20023;-83
2022/08/04 09:09:31;;;;;;;15.32;4.68;;;;;;;;;;4961346;28;20571;-84
2022/08/04 09:12:12;;;;;;;4.85;3.20;;;;;;;;;;4970609;28;20121;-79
2022/08/04 09:14:51;;;;;;;6.55;2.92;;;;;;;;;;4971673;28;20038;-81
2022/08/04 09:17:22;;;;;;;3.58;2.80;;;;;;;;;;4970340;28;20109;-81
2022/08/04 09:19:52;;;;;;;6.05;2.88;;;;;;;;;;4967922;28;20033;-80
2022/08/04 09:22:38;;;;;;;4.22;3.08;;;;;;;;;;4949342;28;20144;-67
2022/08/04 09:25:07;;;;;;;4.93;2.70;;;;;;;;;;4964295;28;20031;-68
2022/08/04 09:27:46;;;;;;;3.83;2.58;;;;;;;;;;4971407;28;20041;-69
2022/08/04 09:30:13;;;;;;;6.90;2.40;;;;;;;;;;4999532;28;20037;-73
2022/08/04 09:32:40;;;;;;;5.53;3.00;;;;;;;;;;5028419;28;20458;-77
2022/08/04 09:35:06;;;;;;;18.10;3.75;;;;;;;;;;5025904;28;20045;-73
2022/08/04 09:37:51;;;;;;;5.45;2.80;;;;;;;;;;5030383;28;20029;-73
2022/08/04 09:40:34;;;;;;;12.90;3.10;;;;;;;;;;5030935;28;20038;-81
2022/08/04 09:42:59;;;;;;;;;;;;;;;;;;5029196;28;20026;-82
2022/08/04 09:45:38;;;;;;;6.40;2.67;;;;;;;;;;5018263;28;19908;-81
2022/08/04 09:48:30;;;;;;;7.07;2.75;;;;;;;;;;5022027;28;20083;-79
2022/08/04 09:50:58;;;;;;;10.50;3.30;;;;;;;;;;4999072;28;20049;-81
2022/08/04 09:53:40;;;;;;;7.68;3.40;;;;;;;;;;5031157;28;20509;-72
2022/08/04 09:56:06;;;;;;;14.98;3.35;;;;;;;;;;5030306;28;20041;-84
2022/08/04 09:58:51;;;;;;;3.67;3.00;;;;;;;;;;5031338;28;20060;-78
2022/08/04 10:01:21;;;;;;;6.70;2.97;;;;;;;;;;5026377;28;20121;-71
2022/08/04 10:03:52;;;;;;;11.13;3.55;;;;;;;;;;5028523;28;20110;-85
2022/08/04 10:06:18;;;;;;;3.65;2.80;;;;;;;;;;5028919;28;20048;-78
2022/08/04 10:08:44;;;;;;;7.20;3.10;;;;;;;;;;5029482;28;20568;-77
2022/08/04 10:11:16;;;;;;;8.50;3.25;;;;;;;;;;5030078;28;20037;-73
2022/08/04 10:13:48;;;;;;;7.70;3.03;;;;;;;;;;5026936;28;20479;-74
2022/08/04 10:16:23;;;;;;;7.80;3.22;;;;;;;;;;5028963;28;20513;-78
2022/08/04 10:19:05;;;;;;;5.85;3.30;;;;;;;;;;5028817;28;20033;-79
2022/08/04 10:21:42;;;;;;;4.60;3.17;;;;;;;;;;5031058;28;20029;-81
2022/08/04 10:24:24;;;;;;;7.18;3.00;;;;;;;;;;5028157;28;20028;-76
2022/08/04 10:27:09;;;;;;;9.13;3.55;;;;;;;;;;5030720;28;20513;-78
2022/08/04 10:29:40;;;;;;;3.88;2.85;;;;;;;;;;5027451;28;20038;-73
2022/08/04 10:32:06;;;;;;;13.95;3.42;;;;;;;;;;5027967;28;20105;-79
2022/08/04 10:34:38;;;;;;;8.35;3.03;;;;;;;;;;5028033;28;20053;-82
2022/08/04 10:37:10;;;;;;;4.93;2.90;;;;;;;;;;5025084;28;20021;-80
2022/08/04 10:42:41;;;;;;;15.30;3.83;;;;;;;;;;5028531;28;20040;-77
2022/08/04 10:45:18;;;;;;;13.93;3.28;;;;;;;;;;5013860;28;20120;-77
2022/08/04 10:47:50;;;;;;;13.48;3.28;;;;;;;;;;5026330;28;20079;-81
2022/08/04 10:50:17;;;;;;;18.02;4.30;;;;;;;;;;5023494;28;20049;-69
2022/08/04 10:52:57;;;;;;;3.75;2.50;;;;;;;;;;5030339;28;20029;-66
2022/08/04 10:55:29;;;;;;;7.35;2.97;;;;;;;;;;5027929;28;20556;-68
2022/08/04 10:58:00;;;;;;;3.67;2.63;;;;;;;;;;5027157;28;20160;-66
2022/08/04 11:00:27;;;;;;;9.07;3.03;;;;;;;;;;5030107;28;20044;-74
2022/08/04 11:03:07;;;;;;;6.47;2.80;;;;;;;;;;5030607;28;20022;-78
2022/08/04 11:05:44;;;;;;;15.40;3.15;;;;;;;;;;5028722;28;20044;-76
2022/08/04 11:08:19;;;;;;;7.07;2.67;;;;;;;;;;5038045;28;20116;-71
2022/08/04 11:10:47;;;;;;;10.25;2.75;;;;;;;;;;5029094;28;20461;-72
2022/08/04 11:13:16;;;;;;;9.95;2.70;;;;;;;;;;5031023;28;20080;-69
2022/08/04 11:15:51;;;;;;;9.40;3.55;;;;;;;;;;5032409;28;20025;-69
2022/08/04 11:18:23;;;;;;;1230.38;102.90;;;;;;;;;;5022437;28;20041;-74
2022/08/04 11:21:00;;;;;;;44.10;5.25;;;;;;;;;;5028875;28;20395;-73
2022/08/04 11:23:33;;;;;;;25.75;3.55;;;;;;;;;;5033542;28;20030;-85
2022/08/04 11:26:00;;;;;;;8.93;2.95;;;;;;;;;;5032429;28;20414;-78
2022/08/04 11:28:38;;;;;;;6.60;2.60;;;;;;;;;;5030561;28;20108;-79
2022/08/04 11:31:06;;;;;;;5.25;2.90;;;;;;;;;;5030114;28;20103;-77
2022/08/04 11:33:58;;;;;;;5.03;2.60;;;;;;;;;;5043381;28;20041;-73
2022/08/04 11:36:27;;;;;;;4.35;2.80;;;;;;;;;;4953117;28;20049;-66
2022/08/04 11:39:03;;;;;;;3.45;2.50;;;;;;;;;;4951084;28;20579;-74
2022/08/04 11:41:37;;;;;;;4.28;2.50;;;;;;;;;;4946759;29;20043;-79
2022/08/04 11:44:04;;;;;;;4.20;3.08;;;;;;;;;;4955166;28;20388;-68
2022/08/04 11:46:41;;;;;;;3.90;2.60;;;;;;;;;;4949036;28;20023;-75
2022/08/04 11:49:11;;;;;;;3.40;2.60;;;;;;;;;;4955176;28;20035;-79
2022/08/04 11:51:38;;;;;;;3.20;2.40;;;;;;;;;;4956592;28;20031;-71
2022/08/04 11:54:04;;;;;;;2.83;2.40;;;;;;;;;;4952146;28;20055;-70
2022/08/04 11:56:30;;;;;;;5.53;2.50;;;;;;;;;;4927651;29;20406;-76
2022/08/04 11:58:57;;;;;;;3.17;2.50;;;;;;;;;;4943173;29;20256;-82
2022/08/04 12:01:23;;;;;;;446.35;27.50;;;;;;;;;;4946808;28;20401;-73
2022/08/04 12:03:56;;;;;;;3.45;2.60;;;;;;;;;;4953661;28;20523;-75
2022/08/04 12:06:28;;;;;;;8.57;2.83;;;;;;;;;;4958544;28;20089;-80
2022/08/04 12:08:54;;;;;;;5.88;2.60;;;;;;;;;;4960001;28;20608;-69
2022/08/04 12:11:23;;;;;;;6.25;2.58;;;;;;;;;;4958128;28;20035;-75
2022/08/04 12:14:08;;;;;;;5.00;2.60;;;;;;;;;;5002086;28;20044;-72
2022/08/04 12:16:52;;;;;;;6.00;2.70;;;;;;;;;;5018111;28;20121;-73
2022/08/04 12:19:29;;;;;;;5.80;3.00;;;;;;;;;;5031329;28;20386;-72
2022/08/04 12:21:58;;;;;;;3.00;2.58;;;;;;;;;;5031810;28;20017;-77
2022/08/04 12:24:37;;;;;;;3.97;2.83;;;;;;;;;;5031271;28;20420;-76
2022/08/04 12:27:16;;;;;;;4.82;2.70;;;;;;;;;;5029395;28;20034;-92
2022/08/04 12:29:44;;;;;;;3.22;2.55;;;;;;;;;;5028350;28;20479;-83
2022/08/04 12:32:17;;;;;;;3.10;2.60;;;;;;;;;;5025021;28;20105;-75
2022/08/04 12:34:47;;;;;;;8.50;3.15;;;;;;;;;;5033789;28;20054;-77
2022/08/04 12:37:33;;;;;;;29.23;3.65;;;;;;;;;;5032704;28;20430;-65
2022/08/04 12:40:01;;;;;;;8.88;2.80;;;;;;;;;;5032162;28;20026;-79
2022/08/04 12:42:33;;;;;;;33.05;4.38;;;;;;;;;;5031726;28;20026;-77
2022/08/04 12:45:03;;;;;;;110.35;7.45;;;;;;;;;;5033410;28;20026;-77
2022/08/04 12:47:29;;;;;;;5.35;2.90;;;;;;;;;;5030598;28;20036;-75
2022/08/04 12:50:00;;;;;;;5.88;2.65;;;;;;;;;;5029540;28;22140;-84
2022/08/04 12:52:26;;;;;;;8.93;2.92;;;;;;;;;;5033841;28;20117;-82
2022/08/04 12:54:54;;;;;;;8.25;3.38;;;;;;;;;;5033094;28;20033;-77
2022/08/04 12:57:21;;;;;;;3.35;2.67;;;;;;;;;;5029085;28;20056;-83
2022/08/04 12:59:48;;;;;;;5.10;2.78;;;;;;;;;;5030379;28;20041;-81
2022/08/04 13:02:25;;;;;;;3.35;2.65;;;;;;;;;;5030666;28;20025;-76
2022/08/04 13:04:52;;;;;;;4.47;2.50;;;;;;;;;;5032507;28;20040;-82
2022/08/04 13:07:20;;;;;;;10.13;2.90;;;;;;;;;;5029423;28;20047;-81
2022/08/04 13:09:46;;;;;;;4.88;2.70;;;;;;;;;;5031234;28;20037;-83
2022/08/04 13:12:14;;;;;;;3.80;2.67;;;;;;;;;;5031385;28;20068;-83
2022/08/04 13:14:44;;;;;;;3.78;2.70;;;;;;;;;;5029861;28;20124;-71
2022/08/04 13:17:11;;;;;;;6.50;2.88;;;;;;;;;;5028579;28;20029;-77
2022/08/04 13:19:37;;;;;;;11.20;3.15;;;;;;;;;;5029376;28;20029;-84
2022/08/04 13:22:03;;;;;;;3.22;2.67;;;;;;;;;;5031783;28;20032;-83
2022/08/04 13:24:30;;;;;;;4.95;3.00;;;;;;;;;;5030753;28;20123;-82
2022/08/04 13:26:58;;;;;;;29.13;4.90;;;;;;;;;;5016199;28;20101;-83
2022/08/04 13:29:29;;;;;;;5.93;3.60;;;;;;;;;;5031430;28;20040;-82
2022/08/04 13:31:55;;;;;;;8.27;3.10;;;;;;;;;;5030518;28;20147;-83
2022/08/04 13:34:22;;;;;;;5.97;2.72;;;;;;;;;;5029177;28;20041;-83
2022/08/04 13:36:49;;;;;;;13.00;3.20;;;;;;;;;;5030219;28;20043;-84
2022/08/04 13:39:20;;;;;;;43.00;5.50;;;;;;;;;;5031284;28;20033;-87
2022/08/04 13:41:50;;;;;;;5.85;2.90;;;;;;;;;;5036072;28;20116;-73
2022/08/04 13:44:19;;;;;;;11.95;3.20;;;;;;;;;;5032851;28;20116;-72
2022/08/04 13:46:46;;;;;;;8.20;2.90;;;;;;;;;;5029133;28;20017;-70
2022/08/04 13:49:15;;;;;;;7.78;3.22;;;;;;;;;;5031297;28;20028;-77
2022/08/04 13:51:41;;;;;;;5.05;2.80;;;;;;;;;;5028556;28;20026;-69
2022/08/04 13:54:08;;;;;;;3.92;3.00;;;;;;;;;;5031276;28;20033;-76
2022/08/04 13:56:41;;;;;;;5.15;3.00;;;;;;;;;;5032515;28;20104;-70
2022/08/04 13:59:10;;;;;;;3.58;2.72;;;;;;;;;;5031166;28;20083;-76
2022/08/04 14:01:38;;;;;;;3.33;2.72;;;;;;;;;;5031952;28;20021;-70
2022/08/04 14:04:18;;;;;;;5.20;2.95;;;;;;;;;;5031972;28;20022;-70
2022/08/04 14:06:50;;;;;;;3.25;2.60;;;;;;;;;;5031992;28;20365;-69
2022/08/04 14:09:17;;;;;;;5.65;2.88;;;;;;;;;;5027231;28;20024;-76
2022/08/04 14:11:48;;;;;;;7.47;2.72;;;;;;;;;;5029842;28;20056;-75
2022/08/04 14:14:24;;;;;;;3.03;2.55;;;;;;;;;;5030663;28;20041;-71
2022/08/04 14:16:55;;;;;;;7.07;3.30;;;;;;;;;;5025827;28;20028;-77
2022/08/04 14:19:21;;;;;;;6.45;2.80;;;;;;;;;;5031955;28;20030;-76
2022/08/04 14:21:47;;;;;;;8.40;2.63;;;;;;;;;;5030846;28;20457;-72
2022/08/04 14:24:22;;;;;;;4.28;2.80;;;;;;;;;;5031795;28;20033;-76
2022/08/04 14:26:48;;;;;;;3.08;2.60;;;;;;;;;;5031427;28;20479;-70
2022/08/04 14:29:15;;;;;;;4.38;3.00;;;;;;;;;;5031695;28;20072;-72
2022/08/04 14:31:41;;;;;;;5.32;2.60;;;;;;;;;;5032179;28;20018;-75
2022/08/04 14:34:08;;;;;;;24.15;4.15;;;;;;;;;;5030944;28;20037;-74
2022/08/04 14:36:41;;;;;;;4.80;2.63;;;;;;;;;;5031254;28;20067;-71
2022/08/04 14:39:11;;;;;;;5.43;2.75;;;;;;;;;;5026124;28;20033;-73
2022/08/04 14:41:44;;;;;;;2.67;2.40;;;;;;;;;;5030077;28;20029;-75
2022/08/04 14:44:10;;;;;;;16.27;2.72;;;;;;;;;;5011853;28;20034;-69
2022/08/04 14:46:49;;;;;;;14.05;2.90;;;;;;;;;;5030691;28;20100;-69
2022/08/04 14:49:16;;;;;;;4.57;3.03;;;;;;;;;;5032718;28;20030;-72
2022/08/04 14:51:43;;;;;;;4.40;2.80;;;;;;;;;;5036252;28;20033;-74
2022/08/04 14:54:10;;;;;;;6.13;3.17;;;;;;;;;;5034301;28;20077;-75
2022/08/04 14:56:38;;;;;;;14.82;3.55;;;;;;;;;;5035871;28;20108;-68
2022/08/04 14:59:06;;;;;;;4.05;2.92;;;;;;;;;;5031275;28;20048;-74
2022/08/04 15:01:32;;;;;;;12.63;3.05;;;;;;;;;;5035251;28;20075;-71
2022/08/04 15:04:00;;;;;;;5.15;3.38;;;;;;;;;;5032398;28;20048;-70
2022/08/04 15:06:27;;;;;;;4.50;2.75;;;;;;;;;;5034313;28;20022;-72
2022/08/04 15:08:55;;;;;;;10.55;3.25;;;;;;;;;;5035795;28;20068;-70
2022/08/04 15:11:21;;;;;;;3.40;2.50;;;;;;;;;;5031392;28;20080;-72
2022/08/04 15:13:47;;;;;;;4.45;3.00;;;;;;;;;;5035510;28;20030;-70